createdAt,value
2018-11-14T00:00:58.012Z,9.40
2018-11-14T00:03:27.893Z,9.20
2018-11-14T00:05:57.786Z,9.20
2018-11-14T00:08:28.651Z,9.20
2018-11-14T00:10:58.542Z,9.20
2018-11-14T00:13:28.411Z,9.20
2018-11-14T00:15:59.400Z,9.20
2018-11-14T00:18:29.284Z,9.10
2018-11-14T00:20:59.152Z,9.10
2018-11-14T00:23:29.354Z,9.10
2018-11-14T00:25:59.224Z,9.10
2018-11-14T00:28:29.109Z,9.10
2018-11-14T00:30:59.568Z,9.10
2018-11-14T00:33:29.429Z,9.10
2018-11-14T00:35:59.293Z,9.10
2018-11-14T00:38:30.184Z,9.10
2018-11-14T00:41:00.111Z,9.10
2018-11-14T00:43:30.004Z,9.10
2018-11-14T00:46:01.822Z,9.00
2018-11-14T00:48:31.682Z,9.00
2018-11-14T00:51:01.574Z,9.00
2018-11-14T00:53:31.500Z,9.00
2018-11-14T00:56:01.373Z,9.00
2018-11-14T00:58:31.267Z,9.00
2018-11-14T01:01:02.309Z,9.00
2018-11-14T01:03:32.261Z,8.90
2018-11-14T01:06:02.149Z,8.90
2018-11-14T01:08:32.363Z,8.90
2018-11-14T01:11:02.253Z,8.90
2018-11-14T01:13:32.116Z,8.90
2018-11-14T01:16:02.313Z,8.90
2018-11-14T01:18:32.207Z,9.00
2018-11-14T01:21:02.071Z,8.90
2018-11-14T01:23:33.860Z,8.90
2018-11-14T01:26:03.733Z,8.90
2018-11-14T01:28:33.612Z,8.90
2018-11-14T01:31:04.558Z,8.90
2018-11-14T01:33:34.434Z,8.80
2018-11-14T01:36:04.326Z,8.80
2018-11-14T01:38:35.282Z,8.80
2018-11-14T01:41:05.215Z,8.80
2018-11-14T01:43:35.017Z,8.80
2018-11-14T01:46:05.162Z,8.80
2018-11-14T01:48:35.056Z,8.80
2018-11-14T01:51:04.953Z,8.80
2018-11-14T01:53:34.852Z,8.80
2018-11-14T01:56:04.726Z,8.80
2018-11-14T01:58:34.624Z,8.80
2018-11-14T02:01:05.395Z,8.80
2018-11-14T02:03:35.419Z,8.70
2018-11-14T02:06:05.334Z,8.70
2018-11-14T02:08:35.431Z,8.60
2018-11-14T02:11:05.526Z,8.60
2018-11-14T02:13:35.448Z,8.60
2018-11-14T02:16:05.955Z,8.60
2018-11-14T02:18:35.877Z,8.50
2018-11-14T02:21:05.957Z,8.50
2018-11-14T02:23:38.146Z,8.40
2018-11-14T02:26:08.093Z,8.30
2018-11-14T02:28:38.004Z,8.20
2018-11-14T02:31:08.559Z,8.20
2018-11-14T02:33:38.479Z,8.10
2018-11-14T02:36:08.628Z,8.00
2018-11-14T02:38:39.655Z,7.90
2018-11-14T02:41:09.600Z,7.80
2018-11-14T02:43:39.636Z,7.70
2018-11-14T02:46:09.923Z,7.70
2018-11-14T02:48:40.031Z,7.60
2018-11-14T02:51:30.055Z,7.50
2018-11-14T02:53:59.934Z,7.50
2018-11-14T02:56:29.868Z,7.40
2018-11-14T02:59:00.982Z,7.40
2018-11-14T03:01:30.042Z,7.30
2018-11-14T03:04:00.071Z,7.30
2018-11-14T03:06:30.142Z,7.30
2018-11-14T03:09:00.228Z,7.40
2018-11-14T03:11:30.280Z,7.30
2018-11-14T03:14:00.356Z,7.40
2018-11-14T03:16:30.448Z,7.50
2018-11-14T03:19:00.390Z,7.50
2018-11-14T03:21:31.974Z,7.50
2018-11-14T03:24:01.983Z,7.50
2018-11-14T03:26:32.126Z,7.50
2018-11-14T03:29:03.642Z,7.50
2018-11-14T03:31:33.509Z,7.50
2018-11-14T03:34:03.397Z,7.50
2018-11-14T03:36:34.308Z,7.50
2018-11-14T03:39:04.275Z,7.50
2018-11-14T03:41:34.265Z,7.50
2018-11-14T03:44:05.021Z,7.50
2018-11-14T03:46:34.884Z,7.60
2018-11-14T03:49:05.828Z,7.60
2018-11-14T03:51:37.496Z,7.70
2018-11-14T03:54:07.407Z,7.70
2018-11-14T03:56:37.353Z,7.60
2018-11-14T03:59:07.997Z,7.60
2018-11-14T04:01:37.897Z,7.60
2018-11-14T04:04:07.966Z,7.60
2018-11-14T04:06:38.210Z,7.60
2018-11-14T04:09:11.901Z,7.70
2018-11-14T04:11:42.362Z,7.70
2018-11-14T04:14:12.289Z,7.80
2018-11-14T04:16:42.184Z,7.80
2018-11-14T04:19:12.083Z,7.80
2018-11-14T04:21:41.978Z,7.80
2018-11-14T04:24:12.728Z,7.90
2018-11-14T04:26:42.761Z,7.90
2018-11-14T04:29:12.800Z,7.90
2018-11-14T04:31:43.250Z,7.90
2018-11-14T04:34:13.278Z,7.90
2018-11-14T04:36:43.297Z,7.90
2018-11-14T04:39:14.363Z,7.90
2018-11-14T04:41:44.397Z,8.00
2018-11-14T04:44:14.610Z,8.00
2018-11-14T04:46:44.774Z,8.00
2018-11-14T04:49:14.813Z,7.90
2018-11-14T04:51:44.694Z,7.90
2018-11-14T04:54:16.418Z,8.00
2018-11-14T04:56:46.477Z,8.00
2018-11-14T04:59:16.598Z,7.90
2018-11-14T05:01:48.606Z,8.00
2018-11-14T05:04:18.493Z,8.00
2018-11-14T05:06:48.525Z,8.00
2018-11-14T05:09:18.663Z,8.00
2018-11-14T05:11:48.808Z,8.00
2018-11-14T05:14:18.722Z,8.00
2018-11-14T05:16:49.684Z,8.00
2018-11-14T05:19:19.593Z,8.00
2018-11-14T05:21:49.644Z,8.00
2018-11-14T05:24:21.769Z,8.00
2018-11-14T05:26:51.764Z,8.00
2018-11-14T05:29:21.701Z,8.00
2018-11-14T05:31:51.646Z,7.90
2018-11-14T05:34:21.559Z,8.00
2018-11-14T05:36:51.467Z,7.90
2018-11-14T05:39:21.680Z,8.00
2018-11-14T05:41:51.569Z,8.00
2018-11-14T05:44:21.451Z,8.00
2018-11-14T05:46:54.815Z,8.10
2018-11-14T05:49:25.055Z,8.20
2018-11-14T05:51:55.171Z,8.60
2018-11-14T05:54:26.302Z,8.50
2018-11-14T05:56:56.259Z,8.80
2018-11-14T05:59:26.286Z,8.80
2018-11-14T06:01:56.549Z,8.90
2018-11-14T06:04:26.445Z,9.00
2018-11-14T06:06:56.456Z,9.00
2018-11-14T06:09:27.262Z,8.90
2018-11-14T06:11:57.287Z,8.90
2018-11-14T06:14:27.428Z,8.90
2018-11-14T06:16:58.231Z,8.90
2018-11-14T06:19:28.315Z,9.00
2018-11-14T06:21:58.294Z,9.10
2018-11-14T06:24:30.526Z,9.40
2018-11-14T06:27:00.464Z,9.40
2018-11-14T06:29:30.486Z,9.60
2018-11-14T06:32:01.628Z,10.00
2018-11-14T06:34:31.791Z,10.00
2018-11-14T06:37:01.683Z,10.20
2018-11-14T06:39:31.857Z,10.40
2018-11-14T06:42:01.729Z,10.60
2018-11-14T06:44:31.586Z,10.80
2018-11-14T06:47:02.560Z,11.00
2018-11-14T06:49:32.504Z,11.20
2018-11-14T06:52:02.414Z,11.20
2018-11-14T06:54:32.588Z,11.20
2018-11-14T06:57:02.822Z,11.20
2018-11-14T06:59:33.050Z,11.20
2018-11-14T07:02:03.195Z,11.20
2018-11-14T07:04:33.208Z,11.30
2018-11-14T07:07:03.164Z,11.50
2018-11-14T07:09:34.125Z,11.50
2018-11-14T07:12:04.033Z,11.60
2018-11-14T07:14:33.894Z,11.70
2018-11-14T07:17:04.148Z,11.80
2018-11-14T07:19:34.346Z,11.90
2018-11-14T07:22:04.488Z,12.00
2018-11-14T07:24:34.781Z,12.20
2018-11-14T07:27:04.863Z,12.30
2018-11-14T07:29:35.107Z,12.50
2018-11-14T07:32:05.803Z,12.70
2018-11-14T07:34:35.682Z,12.90
2018-11-14T07:37:05.557Z,13.10
2018-11-14T07:39:35.747Z,13.30
2018-11-14T07:42:05.880Z,13.50
2018-11-14T07:44:35.752Z,13.80
2018-11-14T07:47:06.919Z,14.40
2018-11-14T07:49:37.009Z,15.00
2018-11-14T07:52:07.045Z,15.70
2018-11-14T07:54:37.218Z,16.10
2018-11-14T07:57:07.108Z,16.50
2018-11-14T07:59:37.037Z,16.90
2018-11-14T08:02:08.878Z,17.40
2018-11-14T08:04:38.850Z,17.80
2018-11-14T08:07:09.030Z,18.30
2018-11-14T08:09:39.122Z,18.80
2018-11-14T08:12:09.062Z,19.40
2018-11-14T08:14:39.478Z,19.90
2018-11-14T08:17:09.368Z,20.50
2018-11-14T08:19:39.243Z,21.20
2018-11-14T08:22:09.188Z,21.90
2018-11-14T08:24:39.101Z,22.40
2018-11-14T08:27:10.417Z,23.20
2018-11-14T08:29:40.408Z,23.50
2018-11-14T08:32:10.467Z,23.40
2018-11-14T08:34:41.576Z,23.20
2018-11-14T08:37:11.448Z,23.10
2018-11-14T08:39:41.297Z,22.50
2018-11-14T08:42:11.549Z,22.00
2018-11-14T08:44:41.425Z,21.50
2018-11-14T08:47:11.304Z,21.10
2018-11-14T08:49:41.979Z,20.60
2018-11-14T08:52:11.862Z,20.20
2018-11-14T08:54:41.726Z,19.80
2018-11-14T08:57:12.636Z,19.30
2018-11-14T08:59:42.568Z,19.00
2018-11-14T09:02:12.428Z,18.70
2018-11-14T09:04:43.354Z,18.60
2018-11-14T09:07:13.219Z,18.40
2018-11-14T09:09:43.102Z,18.40
2018-11-14T09:12:13.278Z,18.20
2018-11-14T09:14:43.197Z,18.00
2018-11-14T09:17:13.011Z,17.60
2018-11-14T09:19:45.597Z,17.30
2018-11-14T09:22:15.469Z,17.20
2018-11-14T09:24:45.407Z,17.00
2018-11-14T09:27:15.593Z,16.80
2018-11-14T09:29:45.636Z,16.70
2018-11-14T09:32:15.662Z,16.60
2018-11-14T09:34:46.428Z,16.40
2018-11-14T09:37:16.350Z,16.20
2018-11-14T09:39:46.384Z,16.20
2018-11-14T09:42:16.349Z,16.20
2018-11-14T09:44:46.452Z,16.20
2018-11-14T09:47:16.483Z,16.20
2018-11-14T09:49:46.725Z,16.30
2018-11-14T09:52:16.597Z,16.50
2018-11-14T09:54:46.477Z,16.50
2018-11-14T09:57:16.688Z,16.70
2018-11-14T09:59:46.870Z,16.90
2018-11-14T10:02:16.893Z,17.00
2018-11-14T10:04:47.272Z,17.10
2018-11-14T10:07:17.267Z,17.10
2018-11-14T10:09:47.292Z,17.10
2018-11-14T10:12:17.538Z,17.00
2018-11-14T10:14:47.689Z,16.80
2018-11-14T10:17:17.712Z,16.70
2018-11-14T10:19:47.677Z,16.60
2018-11-14T10:22:17.794Z,16.50
2018-11-14T10:24:47.835Z,16.40
2018-11-14T10:27:18.469Z,16.20
2018-11-14T10:29:48.494Z,16.10
2018-11-14T10:32:18.524Z,15.90
2018-11-14T10:34:50.212Z,15.70
2018-11-14T10:37:20.239Z,15.60
2018-11-14T10:39:50.359Z,15.50
2018-11-14T10:42:21.306Z,15.40
2018-11-14T10:44:51.255Z,15.30
2018-11-14T10:47:21.394Z,15.20
2018-11-14T10:49:51.663Z,15.20
2018-11-14T10:52:21.886Z,15.10
2018-11-14T10:54:51.905Z,15.10
2018-11-14T10:57:22.835Z,15.00
2018-11-14T10:59:52.898Z,14.90
2018-11-14T11:02:40.651Z,14.90
2018-11-14T11:05:47.514Z,14.80
2018-11-14T11:08:45.511Z,14.70
2018-11-14T11:11:28.822Z,14.70
2018-11-14T11:14:06.219Z,14.60
2018-11-14T11:16:36.116Z,14.60
2018-11-14T11:19:06.308Z,14.50
2018-11-14T11:21:36.224Z,14.50
2018-11-14T11:24:06.198Z,14.50
2018-11-14T11:26:37.211Z,14.50
2018-11-14T11:29:08.524Z,14.50
2018-11-14T11:31:38.502Z,14.60
2018-11-14T11:34:09.303Z,14.60
2018-11-14T11:36:39.711Z,14.60
2018-11-14T11:39:15.340Z,14.60
2018-11-14T11:41:45.923Z,14.70
2018-11-14T11:44:15.862Z,14.80
2018-11-14T11:46:45.946Z,14.80
2018-11-14T11:49:16.113Z,14.80
2018-11-14T11:51:46.143Z,14.80
2018-11-14T11:54:16.110Z,14.80
2018-11-14T11:56:46.221Z,14.80
2018-11-14T11:59:16.100Z,14.80
2018-11-14T12:01:46.245Z,14.80
2018-11-14T12:04:16.131Z,14.80
2018-11-14T12:06:46.017Z,14.70
2018-11-14T12:09:15.947Z,14.70
2018-11-14T12:11:45.869Z,14.70
2018-11-14T12:14:15.753Z,14.70
2018-11-14T12:16:47.414Z,14.70
2018-11-14T12:19:17.568Z,14.60
2018-11-14T12:21:47.413Z,14.60
2018-11-14T12:24:17.624Z,14.60
2018-11-14T12:26:47.504Z,14.60
2018-11-14T12:29:17.400Z,14.50
2018-11-14T12:31:48.116Z,14.40
2018-11-14T12:34:18.032Z,14.40
2018-11-14T12:36:47.906Z,14.30
2018-11-14T12:39:17.843Z,14.30
2018-11-14T12:41:47.711Z,14.20
2018-11-14T12:44:17.691Z,14.20
2018-11-14T12:46:48.009Z,14.00
2018-11-14T12:49:17.877Z,14.00
2018-11-14T12:51:47.765Z,14.00
2018-11-14T12:54:17.882Z,13.90
2018-11-14T12:56:47.742Z,13.90
2018-11-14T12:59:17.619Z,13.90
2018-11-14T13:01:47.799Z,13.90
2018-11-14T13:04:17.771Z,13.90
2018-11-14T13:06:47.877Z,13.80
2018-11-14T13:09:19.035Z,13.70
2018-11-14T13:11:48.931Z,13.70
2018-11-14T13:14:18.792Z,13.60
2018-11-14T13:16:49.757Z,13.60
2018-11-14T13:19:19.622Z,13.50
2018-11-14T13:21:49.502Z,13.50
2018-11-14T13:24:20.271Z,13.50
2018-11-14T13:26:50.177Z,13.50
2018-11-14T13:29:20.221Z,13.50
2018-11-14T13:31:51.320Z,13.40
2018-11-14T13:34:21.223Z,13.40
2018-11-14T13:36:51.085Z,13.40
2018-11-14T13:39:22.618Z,13.40
2018-11-14T13:41:52.480Z,13.30
2018-11-14T13:44:22.360Z,13.30
2018-11-14T13:46:52.820Z,13.20
2018-11-14T13:49:22.891Z,13.20
2018-11-14T13:51:52.585Z,13.20
2018-11-14T13:54:22.723Z,13.10
2018-11-14T13:56:52.607Z,13.10
2018-11-14T13:59:22.584Z,13.00
2018-11-14T14:01:53.328Z,13.00
2018-11-14T14:04:23.205Z,13.10
2018-11-14T14:06:53.080Z,13.00
2018-11-14T14:09:23.231Z,13.00
2018-11-14T14:11:53.100Z,13.10
2018-11-14T14:14:22.979Z,13.10
2018-11-14T14:16:54.028Z,13.10
2018-11-14T14:19:23.881Z,13.10
2018-11-14T14:21:53.737Z,13.10
2018-11-14T14:24:24.662Z,13.20
2018-11-14T14:26:54.544Z,13.10
2018-11-14T14:29:24.403Z,13.10
2018-11-14T14:31:56.395Z,13.10
2018-11-14T14:34:26.274Z,13.10
2018-11-14T14:36:56.361Z,13.10
2018-11-14T14:39:26.445Z,13.00
2018-11-14T14:41:56.532Z,13.10
2018-11-14T14:44:26.479Z,13.10
2018-11-14T14:46:56.728Z,13.10
2018-11-14T14:49:26.608Z,13.10
2018-11-14T14:51:56.478Z,13.10
2018-11-14T14:54:29.608Z,13.10
2018-11-14T14:56:59.497Z,13.20
2018-11-14T14:59:29.360Z,13.20
2018-11-14T15:01:59.775Z,13.20
2018-11-14T15:04:29.631Z,13.20
2018-11-14T15:06:59.489Z,13.20
2018-11-14T15:09:30.900Z,13.20
2018-11-14T15:12:00.714Z,13.30
2018-11-14T15:14:30.579Z,13.30
2018-11-14T15:17:00.534Z,13.20
2018-11-14T15:19:30.628Z,13.20
2018-11-14T15:22:00.521Z,13.20
2018-11-14T15:24:30.758Z,13.10
2018-11-14T15:27:00.835Z,13.10
2018-11-14T15:29:30.866Z,12.90
2018-11-14T15:32:01.008Z,12.90
2018-11-14T15:34:30.904Z,12.90
2018-11-14T15:37:00.781Z,12.90
2018-11-14T15:39:31.477Z,12.80
2018-11-14T15:42:01.352Z,12.80
2018-11-14T15:44:31.224Z,12.80
2018-11-14T15:47:02.639Z,12.70
2018-11-14T15:49:32.540Z,12.70
2018-11-14T15:52:02.506Z,12.60
2018-11-14T15:54:34.990Z,12.60
2018-11-14T15:57:04.851Z,12.60
2018-11-14T15:59:34.724Z,12.60
2018-11-14T16:02:04.621Z,12.50
2018-11-14T16:04:34.485Z,12.60
2018-11-14T16:07:04.356Z,12.50
2018-11-14T16:09:34.267Z,12.40
2018-11-14T16:12:04.126Z,12.40
2018-11-14T16:14:34.053Z,12.30
2018-11-14T16:17:04.318Z,12.30
2018-11-14T16:19:34.272Z,12.20
2018-11-14T16:22:04.142Z,12.10
2018-11-14T16:24:34.105Z,12.10
2018-11-14T16:27:03.902Z,12.10
2018-11-14T16:29:34.659Z,12.00
2018-11-14T16:32:04.601Z,12.00
2018-11-14T16:34:34.616Z,12.00
2018-11-14T16:37:06.093Z,12.00
2018-11-14T16:39:35.973Z,11.90
2018-11-14T16:42:06.048Z,11.90
2018-11-14T16:44:36.969Z,11.90
2018-11-14T16:47:07.290Z,11.90
2018-11-14T16:49:37.176Z,11.90
2018-11-14T16:52:07.764Z,11.90
2018-11-14T16:54:37.661Z,11.90
2018-11-14T16:57:07.646Z,12.00
2018-11-14T16:59:37.582Z,12.00
2018-11-14T17:02:07.514Z,12.10
2018-11-14T17:04:37.368Z,12.10
2018-11-14T17:07:07.436Z,12.10
2018-11-14T17:09:37.402Z,12.20
2018-11-14T17:12:07.386Z,12.20
2018-11-14T17:14:38.193Z,12.20
2018-11-14T17:17:08.077Z,12.20
2018-11-14T17:19:37.951Z,12.20
2018-11-14T17:22:09.049Z,12.20
2018-11-14T17:24:39.196Z,12.20
2018-11-14T17:29:38.814Z,12.20
2018-11-14T17:32:08.677Z,12.30
2018-11-14T17:34:38.545Z,12.20
2018-11-14T17:37:09.464Z,12.20
2018-11-14T17:39:39.361Z,12.20
2018-11-14T17:42:09.484Z,12.30
2018-11-14T17:44:40.181Z,12.30
2018-11-14T17:47:10.053Z,12.40
2018-11-14T17:49:39.953Z,12.40
2018-11-14T17:52:10.024Z,12.40
2018-11-14T17:54:39.912Z,12.50
2018-11-14T17:57:09.877Z,12.50
2018-11-14T17:59:42.377Z,12.60
2018-11-14T18:02:12.295Z,12.50
2018-11-14T18:04:42.274Z,12.60
2018-11-14T18:07:12.262Z,12.60
2018-11-14T18:09:42.187Z,12.60
2018-11-14T18:12:12.130Z,12.60
2018-11-14T18:14:42.139Z,12.60
2018-11-14T18:17:11.944Z,12.60
2018-11-14T18:19:41.814Z,12.60
2018-11-14T18:22:12.223Z,12.60
2018-11-14T18:24:42.119Z,12.60
2018-11-14T18:27:12.102Z,12.70
2018-11-14T18:29:42.322Z,12.70
2018-11-14T18:32:12.248Z,12.70
2018-11-14T18:34:42.193Z,12.80
2018-11-14T18:37:12.148Z,12.80
2018-11-14T18:39:42.151Z,12.70
2018-11-14T18:42:11.990Z,12.80
2018-11-14T18:44:42.170Z,12.80
2018-11-14T18:47:12.064Z,12.90
2018-11-14T18:49:41.973Z,12.70
2018-11-14T18:52:11.932Z,12.80
2018-11-14T18:54:41.855Z,12.70
2018-11-14T18:57:11.995Z,12.70
2018-11-14T18:59:42.145Z,12.70
2018-11-14T19:02:12.044Z,12.80
2018-11-14T19:04:41.937Z,12.80
2018-11-14T19:07:11.897Z,12.80
2018-11-14T19:09:41.787Z,12.90
2018-11-14T19:12:11.687Z,12.90
2018-11-14T19:14:42.427Z,12.80
2018-11-14T19:17:12.354Z,12.80
2018-11-14T19:19:42.501Z,12.80
2018-11-14T19:22:13.944Z,12.80
2018-11-14T19:24:44.000Z,12.80
2018-11-14T19:27:13.773Z,12.80
2018-11-14T19:29:43.659Z,12.80
2018-11-14T19:32:13.662Z,12.80
2018-11-14T19:34:43.560Z,12.90
2018-11-14T19:37:13.564Z,12.90
2018-11-14T19:39:43.461Z,12.90
2018-11-14T19:42:13.363Z,12.90
2018-11-14T19:44:43.260Z,12.90
2018-11-14T19:47:13.162Z,12.80
2018-11-14T19:49:43.054Z,12.80
2018-11-14T19:52:13.079Z,12.90
2018-11-14T19:54:42.975Z,12.90
2018-11-14T19:57:13.306Z,12.80
2018-11-14T19:59:43.196Z,12.80
2018-11-14T20:02:13.234Z,12.80
2018-11-14T20:04:43.103Z,12.90
2018-11-14T20:07:13.018Z,12.90
2018-11-14T20:09:47.759Z,13.00
2018-11-14T20:12:22.785Z,13.00
2018-11-14T20:14:59.064Z,12.90
2018-11-14T20:17:29.669Z,12.90
2018-11-14T20:20:00.994Z,12.80
2018-11-14T20:22:35.083Z,12.90
2018-11-14T20:25:08.475Z,12.90
2018-11-14T20:27:43.397Z,12.90
2018-11-14T20:30:38.279Z,12.90
2018-11-14T20:33:16.625Z,12.80
2018-11-14T20:35:47.717Z,12.90
2018-11-14T20:38:19.605Z,12.90
2018-11-14T20:40:56.185Z,12.90
2018-11-14T20:43:29.362Z,12.90
2018-11-14T20:46:05.024Z,13.00
2018-11-14T20:48:40.821Z,12.90
2018-11-14T20:53:46.753Z,12.80
2018-11-14T20:56:23.265Z,12.90
2018-11-14T20:58:56.567Z,12.90
2018-11-14T21:01:29.253Z,12.90
2018-11-14T21:04:04.251Z,12.80
2018-11-14T21:06:34.588Z,12.80
2018-11-14T21:09:08.569Z,12.90
2018-11-14T21:14:16.613Z,12.90
2018-11-14T21:16:51.369Z,12.90
2018-11-14T21:22:03.931Z,12.90
2018-11-14T21:24:33.890Z,12.90
2018-11-14T21:27:03.830Z,12.90
2018-11-14T21:29:33.744Z,12.90
2018-11-14T21:34:39.704Z,13.00
2018-11-14T21:37:09.596Z,12.90
2018-11-14T21:39:39.491Z,12.90
2018-11-14T21:42:09.373Z,12.80
2018-11-14T21:44:39.287Z,12.90
2018-11-14T21:47:09.190Z,12.90
2018-11-14T21:49:39.131Z,12.80
2018-11-14T21:52:09.019Z,12.80
2018-11-14T21:54:38.917Z,12.80
2018-11-14T21:57:08.854Z,12.80
2018-11-14T21:59:38.749Z,12.70
2018-11-14T22:02:08.644Z,12.80
2018-11-14T22:04:38.714Z,12.70
2018-11-14T22:07:08.760Z,12.60
2018-11-14T22:09:38.646Z,12.70
2018-11-14T22:12:08.662Z,12.60
2018-11-14T22:17:07.833Z,12.60
2018-11-14T22:19:37.936Z,12.60
2018-11-14T22:22:08.027Z,12.60
2018-11-14T22:24:38.073Z,12.60
2018-11-14T22:27:08.101Z,12.60
2018-11-14T22:29:38.399Z,12.60
2018-11-14T22:32:08.400Z,12.60
2018-11-14T22:34:38.326Z,12.60
2018-11-14T22:37:08.196Z,12.60
2018-11-14T22:39:38.081Z,12.60
2018-11-14T22:42:08.036Z,12.70
2018-11-14T22:44:37.942Z,12.70
2018-11-14T22:47:07.859Z,12.70
2018-11-14T22:49:37.795Z,12.70
2018-11-14T22:52:07.697Z,12.70
2018-11-14T22:54:37.613Z,12.80
2018-11-14T22:57:07.508Z,12.70
2018-11-14T22:59:37.528Z,12.70
2018-11-14T23:02:08.197Z,12.70
2018-11-14T23:04:38.110Z,12.70
2018-11-14T23:07:08.034Z,12.70
2018-11-14T23:09:37.938Z,12.60
2018-11-14T23:12:08.136Z,12.60
2018-11-14T23:14:38.052Z,12.50
2018-11-14T23:17:07.989Z,12.50
2018-11-14T23:19:37.987Z,12.50
2018-11-14T23:22:08.012Z,12.50
2018-11-14T23:24:38.053Z,12.50
2018-11-14T23:27:08.290Z,12.50
2018-11-14T23:29:38.311Z,12.40
2018-11-14T23:32:08.209Z,12.40
2018-11-14T23:34:57.122Z,12.40
2018-11-14T23:37:27.047Z,12.30
2018-11-14T23:39:57.202Z,12.30
2018-11-14T23:42:27.084Z,12.30
2018-11-14T23:44:57.048Z,12.30
2018-11-14T23:47:27.034Z,12.40
2018-11-14T23:49:57.222Z,12.30
2018-11-14T23:52:27.263Z,12.30
2018-11-14T23:54:57.156Z,12.20
2018-11-14T23:57:27.042Z,12.20
2018-11-14T23:59:56.952Z,12.20
